Time;durP1;ratioP1;P1;durP2;ratioP2;P2;SDS_P1;SDS_P2;PMS_P1;PMS_P2;Temp;Humidity;BMP_temperature;BMP_pressure;BME280_temperature;BME280_humidity;BME280_pressure;Samples;Min_cycle;Max_cycle;Signal;HPM_P1;HPM_P2
2024/04/08 00:01:12;;;;;;;2.95;0.40;;;14.90;94.40;;;;;;5040350;28;20060;-83
2024/04/08 00:03:38;;;;;;;1.40;0.45;;;14.90;94.50;;;;;;5058697;28;20053;-84
2024/04/08 00:06:05;;;;;;;0.73;0.30;;;14.90;94.60;;;;;;5044307;28;20050;-84
2024/04/08 00:08:31;;;;;;;0.52;0.30;;;14.90;94.70;;;;;;5045973;28;20040;-83
2024/04/08 00:10:57;;;;;;;1.10;0.40;;;14.90;94.80;;;;;;5060552;28;20051;-84
2024/04/08 00:13:23;;;;;;;1.65;0.38;;;14.90;94.90;;;;;;5036535;28;20037;-84
2024/04/08 00:15:58;;;;;;;1.65;0.30;;;14.90;95.00;;;;;;5050487;28;20044;-84
2024/04/08 00:18:24;;;;;;;1.10;0.28;;;14.90;95.10;;;;;;5042928;28;20036;-83
2024/04/08 00:21:03;;;;;;;1.77;0.40;;;14.90;95.20;;;;;;5060533;28;20146;-83
2024/04/08 00:23:29;;;;;;;0.45;0.20;;;14.90;95.20;;;;;;5040626;28;20076;-83
2024/04/08 00:25:55;;;;;;;2.13;0.40;;;14.90;95.60;;;;;;5053035;28;20055;-83
2024/04/08 00:28:21;;;;;;;0.88;0.30;;;14.90;95.30;;;;;;5065893;28;20040;-84
2024/04/08 00:30:48;;;;;;;0.90;0.30;;;14.90;95.50;;;;;;5049267;28;20032;-83
2024/04/08 00:33:14;;;;;;;1.40;0.40;;;14.80;95.50;;;;;;5029860;28;20068;-83
2024/04/08 00:35:40;;;;;;;2.47;0.38;;;14.80;95.60;;;;;;5049417;28;20385;-83
2024/04/08 00:38:06;;;;;;;1.75;0.40;;;14.80;95.70;;;;;;5040982;28;20094;-84
2024/04/08 00:40:37;;;;;;;1.88;0.40;;;14.80;95.70;;;;;;5047395;28;20044;-83
2024/04/08 00:43:03;;;;;;;0.68;0.30;;;14.80;96.00;;;;;;5041056;28;20048;-83
2024/04/08 00:45:32;;;;;;;1.77;0.40;;;14.80;95.80;;;;;;5045200;28;20040;-83
2024/04/08 00:47:58;;;;;;;0.77;0.40;;;14.80;95.90;;;;;;5035970;28;20048;-83
2024/04/08 00:50:25;;;;;;;1.15;0.40;;;14.80;96.20;;;;;;5037545;28;20091;-83
2024/04/08 00:52:52;;;;;;;1.15;0.30;;;14.80;96.00;;;;;;5062865;28;20043;-83
2024/04/08 00:55:19;;;;;;;2.83;0.50;;;14.80;96.10;;;;;;5045719;28;20173;-84
2024/04/08 00:57:47;;;;;;;1.27;0.30;;;14.80;96.20;;;;;;5039165;28;20431;-84
2024/04/08 01:00:13;;;;;;;0.47;0.22;;;14.80;96.20;;;;;;5039277;28;20044;-83
2024/04/08 01:02:39;;;;;;;1.33;0.40;;;14.80;96.30;;;;;;5039022;28;20504;-83
2024/04/08 01:05:06;;;;;;;0.93;0.30;;;14.80;96.30;;;;;;5039305;28;20040;-82
2024/04/08 01:07:35;;;;;;;1.73;0.40;;;14.80;96.40;;;;;;5042520;28;20040;-83
2024/04/08 01:10:01;;;;;;;1.00;0.38;;;14.80;96.50;;;;;;5062666;28;20071;-83
2024/04/08 01:12:27;;;;;;;1.75;0.20;;;14.80;96.50;;;;;;5045670;28;20041;-83
2024/04/08 01:14:53;;;;;;;1.00;0.30;;;14.70;96.60;;;;;;5045917;28;20176;-83
2024/04/08 01:17:20;;;;;;;1.13;0.30;;;14.70;96.60;;;;;;5046669;28;20036;-83
2024/04/08 01:19:48;;;;;;;1.25;0.20;;;14.70;96.70;;;;;;5073552;28;20135;-83
2024/04/08 01:22:14;;;;;;;0.45;0.28;;;14.70;96.80;;;;;;5068811;28;20079;-83
2024/04/08 01:24:40;;;;;;;1.58;0.40;;;14.70;96.90;;;;;;5064916;28;20400;-83
2024/04/08 01:27:06;;;;;;;1.35;0.25;;;14.70;96.90;;;;;;5065634;28;20076;-83
2024/04/08 01:29:35;;;;;;;1.10;0.30;;;14.70;97.00;;;;;;5031840;28;20045;-83
2024/04/08 01:32:04;;;;;;;0.47;0.22;;;14.70;97.00;;;;;;5048515;28;20051;-83
2024/04/08 01:34:31;;;;;;;0.38;0.17;;;14.70;97.10;;;;;;5049014;28;20033;-83
2024/04/08 01:36:57;;;;;;;0.63;0.17;;;14.60;97.10;;;;;;5047389;28;20049;-83
2024/04/08 01:39:24;;;;;;;1.60;0.30;;;14.70;97.20;;;;;;5048389;28;20059;-83
2024/04/08 01:41:50;;;;;;;0.40;0.20;;;14.60;97.20;;;;;;5052791;28;20518;-83
2024/04/08 01:44:16;;;;;;;0.65;0.25;;;14.60;97.30;;;;;;5054359;28;20048;-83
2024/04/08 01:46:42;;;;;;;1.75;0.30;;;14.60;97.30;;;;;;5038897;28;20048;-83
2024/04/08 01:49:08;;;;;;;1.38;0.30;;;14.60;97.40;;;;;;5045249;28;20653;-83
2024/04/08 01:51:34;;;;;;;0.73;0.28;;;14.60;97.40;;;;;;5053438;28;20072;-83
2024/04/08 01:54:00;;;;;;;1.65;0.20;;;14.60;97.50;;;;;;5038386;28;20060;-83
2024/04/08 01:56:26;;;;;;;0.82;0.30;;;14.50;97.50;;;;;;5039093;28;20051;-83
2024/04/08 01:58:52;;;;;;;0.80;0.30;;;14.50;97.60;;;;;;5052776;28;20046;-83
2024/04/08 02:01:18;;;;;;;1.08;0.32;;;14.50;97.70;;;;;;5058680;28;20044;-84
2024/04/08 02:03:44;;;;;;;1.85;0.30;;;14.50;97.70;;;;;;5052174;28;20093;-83
2024/04/08 02:06:10;;;;;;;1.55;0.32;;;14.40;97.70;;;;;;5062052;28;20487;-83
2024/04/08 02:08:36;;;;;;;1.20;0.35;;;14.40;97.80;;;;;;5047788;28;20041;-83
2024/04/08 02:11:02;;;;;;;0.85;0.40;;;14.40;97.80;;;;;;5040514;28;20167;-84
2024/04/08 02:13:29;;;;;;;1.20;0.43;;;14.50;97.90;;;;;;5053991;28;20044;-84
2024/04/08 02:15:55;;;;;;;1.42;0.65;;;14.40;97.90;;;;;;5046256;28;20126;-84
2024/04/08 02:18:21;;;;;;;2.30;0.40;;;14.40;97.90;;;;;;5041395;28;20147;-84
2024/04/08 02:20:47;;;;;;;1.73;0.52;;;14.40;98.00;;;;;;5038359;28;20496;-83
2024/04/08 02:23:13;;;;;;;1.92;0.40;;;14.40;98.10;;;;;;5034790;28;20052;-84
2024/04/08 02:25:42;;;;;;;0.90;0.30;;;14.40;98.10;;;;;;5040177;28;20056;-84
2024/04/08 02:28:08;;;;;;;1.23;0.28;;;14.40;98.10;;;;;;5038329;28;20055;-84
2024/04/08 02:30:38;;;;;;;0.85;0.40;;;14.40;98.20;;;;;;5037978;28;20059;-83
2024/04/08 02:33:05;;;;;;;0.85;0.40;;;14.40;98.20;;;;;;5054609;28;20037;-83
2024/04/08 02:35:35;;;;;;;1.73;0.40;;;14.40;98.30;;;;;;5053377;28;20055;-83
2024/04/08 02:38:04;;;;;;;0.95;0.50;;;14.40;98.30;;;;;;5038473;28;20044;-84
2024/04/08 02:40:34;;;;;;;1.02;0.40;;;14.40;98.40;;;;;;5039140;28;20053;-84
2024/04/08 02:43:02;;;;;;;2.30;0.40;;;14.40;98.40;;;;;;5051454;28;20499;-84
2024/04/08 02:45:28;;;;;;;1.00;0.50;;;14.40;98.50;;;;;;5042584;28;20067;-84
2024/04/08 02:47:57;;;;;;;1.08;0.40;;;14.40;98.50;;;;;;5041973;28;20564;-84
2024/04/08 02:50:24;;;;;;;1.40;0.40;;;14.40;98.50;;;;;;5042014;28;20400;-83
2024/04/08 02:52:50;;;;;;;1.40;0.40;;;14.30;98.50;;;;;;5049207;28;20044;-83
2024/04/08 02:55:16;;;;;;;0.82;0.30;;;14.30;98.60;;;;;;5075713;28;20063;-84
2024/04/08 02:57:42;;;;;;;2.33;0.57;;;14.30;98.60;;;;;;5073951;28;20036;-83
2024/04/08 03:00:10;;;;;;;1.27;0.50;;;14.30;98.60;;;;;;5067201;28;20040;-84
2024/04/08 03:02:36;;;;;;;1.88;0.40;;;14.30;98.60;;;;;;5058633;28;20502;-83
2024/04/08 03:05:03;;;;;;;1.52;0.50;;;14.30;98.70;;;;;;5041790;28;20048;-84
2024/04/08 03:07:29;;;;;;;0.90;0.43;;;14.30;98.70;;;;;;5051963;28;20514;-83
2024/04/08 03:09:56;;;;;;;1.20;0.50;;;14.30;98.80;;;;;;5041258;28;20045;-83
2024/04/08 03:12:24;;;;;;;2.15;0.65;;;14.30;98.80;;;;;;5057676;28;20496;-84
2024/04/08 03:14:50;;;;;;;1.25;0.52;;;14.20;98.80;;;;;;5064831;28;20085;-84
2024/04/08 03:17:16;;;;;;;2.67;0.50;;;14.20;98.90;;;;;;5041234;28;20127;-84
2024/04/08 03:19:42;;;;;;;1.25;0.45;;;14.20;98.90;;;;;;5046015;28;20044;-83
2024/04/08 03:22:08;;;;;;;1.40;0.40;;;14.30;98.90;;;;;;5037831;28;20078;-83
2024/04/08 03:24:34;;;;;;;0.95;0.45;;;14.30;98.90;;;;;;5052607;28;20076;-83
2024/04/08 03:27:00;;;;;;;3.00;0.60;;;14.30;98.90;;;;;;5041172;28;20373;-84
2024/04/08 03:29:26;;;;;;;1.38;0.50;;;14.30;99.00;;;;;;5045145;28;20055;-83
2024/04/08 03:31:52;;;;;;;0.98;0.40;;;14.30;99.00;;;;;;5037115;28;20036;-83
2024/04/08 03:34:18;;;;;;;1.23;0.43;;;14.30;99.00;;;;;;5037399;28;20175;-83
2024/04/08 03:36:45;;;;;;;1.35;0.63;;;14.30;99.10;;;;;;5056871;28;20087;-83
2024/04/08 03:39:11;;;;;;;1.83;0.40;;;14.30;99.10;;;;;;5034460;28;20048;-83
2024/04/08 03:41:37;;;;;;;1.40;0.47;;;14.30;99.20;;;;;;5058983;28;20067;-83
2024/04/08 03:44:05;;;;;;;2.17;0.60;;;14.30;99.20;;;;;;5052650;28;20051;-83
2024/04/08 03:46:31;;;;;;;1.65;0.65;;;14.30;99.30;;;;;;5048534;28;20557;-83
2024/04/08 03:48:57;;;;;;;1.58;0.60;;;14.20;99.30;;;;;;5059916;28;20074;-83
2024/04/08 03:51:24;;;;;;;1.27;0.60;;;14.30;99.30;;;;;;5064692;28;20118;-83
2024/04/08 03:53:50;;;;;;;1.73;0.75;;;14.20;99.40;;;;;;5045260;28;20454;-83
2024/04/08 03:56:16;;;;;;;1.83;0.75;;;14.30;99.40;;;;;;5040834;28;20044;-83
2024/04/08 03:58:43;;;;;;;2.95;0.65;;;14.20;99.40;;;;;;5070338;28;20044;-83
2024/04/08 04:01:09;;;;;;;1.00;0.57;;;14.20;99.50;;;;;;5070649;28;20052;-83
2024/04/08 04:03:36;;;;;;;1.52;0.50;;;14.20;99.60;;;;;;5041747;28;20052;-83
2024/04/08 04:06:03;;;;;;;1.98;0.60;;;14.20;99.60;;;;;;5054216;28;20388;-82
2024/04/08 04:08:29;;;;;;;2.08;0.50;;;14.20;99.70;;;;;;5066397;28;20062;-82
2024/04/08 04:10:58;;;;;;;1.58;0.57;;;14.20;99.70;;;;;;5048196;28;20504;-83
2024/04/08 04:13:24;;;;;;;2.40;0.75;;;14.20;99.80;;;;;;5059212;28;20054;-83
2024/04/08 04:15:51;;;;;;;2.00;0.50;;;14.20;99.80;;;;;;5038227;28;20041;-82
2024/04/08 04:18:17;;;;;;;1.48;0.70;;;14.20;99.90;;;;;;5041983;28;20485;-82
2024/04/08 04:20:46;;;;;;;2.05;0.60;;;14.20;99.90;;;;;;5043462;28;20074;-83
2024/04/08 04:23:14;;;;;;;2.15;0.70;;;14.20;99.90;;;;;;5063548;28;20051;-83
2024/04/08 04:25:41;;;;;;;2.80;0.75;;;14.20;99.90;;;;;;5060806;28;20051;-82
2024/04/08 04:28:07;;;;;;;1.70;1.02;;;14.20;99.90;;;;;;5058885;28;20090;-82
2024/04/08 04:30:33;;;;;;;3.10;0.80;;;14.20;99.90;;;;;;5023360;28;20051;-83
2024/04/08 04:33:03;;;;;;;1.35;0.70;;;14.10;99.90;;;;;;5041806;28;20098;-83
2024/04/08 04:35:29;;;;;;;2.30;0.80;;;14.20;99.90;;;;;;5062746;28;20571;-83
2024/04/08 04:37:56;;;;;;;1.40;0.50;;;14.10;99.90;;;;;;5049500;28;20040;-83
2024/04/08 04:40:22;;;;;;;2.17;0.60;;;14.10;99.90;;;;;;5043680;28;21037;-83
2024/04/08 04:42:48;;;;;;;1.60;0.50;;;14.10;99.90;;;;;;5065224;28;20028;-83
2024/04/08 04:45:16;;;;;;;1.25;0.50;;;14.10;99.90;;;;;;5024256;28;20044;-82
2024/04/08 04:47:43;;;;;;;2.78;0.60;;;14.10;99.90;;;;;;5021229;28;20040;-83
2024/04/08 04:50:09;;;;;;;1.33;0.50;;;14.10;99.90;;;;;;5050454;28;20131;-83
2024/04/08 04:52:35;;;;;;;2.35;0.57;;;14.10;99.90;;;;;;5039981;28;20037;-82
2024/04/08 04:55:01;;;;;;;1.42;0.68;;;14.10;99.90;;;;;;5039988;28;20143;-83
2024/04/08 04:57:27;;;;;;;2.25;0.70;;;14.10;99.90;;;;;;5050546;28;20433;-82
2024/04/08 04:59:54;;;;;;;1.77;0.60;;;14.10;99.90;;;;;;5034852;28;20068;-82
2024/04/08 05:02:20;;;;;;;1.40;0.60;;;14.00;99.90;;;;;;5031965;28;20401;-83
2024/04/08 05:04:46;;;;;;;1.73;0.60;;;14.00;99.90;;;;;;5035747;28;20523;-82
2024/04/08 05:07:12;;;;;;;1.80;0.70;;;14.00;99.90;;;;;;5022769;28;20041;-82
2024/04/08 05:09:38;;;;;;;1.70;0.60;;;14.00;99.90;;;;;;5049755;28;20044;-82
2024/04/08 05:12:04;;;;;;;1.52;0.50;;;14.00;99.90;;;;;;5030375;28;20041;-83
2024/04/08 05:14:30;;;;;;;1.70;0.63;;;14.00;99.90;;;;;;5038910;28;20049;-83
2024/04/08 05:16:56;;;;;;;1.15;0.47;;;14.00;99.90;;;;;;5037856;28;20041;-82
2024/04/08 05:19:23;;;;;;;1.20;0.70;;;14.00;99.90;;;;;;5048228;28;20036;-83
2024/04/08 05:21:49;;;;;;;2.10;0.57;;;14.10;99.90;;;;;;5042148;28;20041;-82
2024/04/08 05:24:16;;;;;;;1.65;0.60;;;14.10;99.90;;;;;;5052583;28;20145;-83
2024/04/08 05:26:42;;;;;;;1.30;0.40;;;14.10;99.90;;;;;;5052296;28;20035;-82
2024/04/08 05:29:08;;;;;;;1.33;0.60;;;14.10;99.90;;;;;;5060280;28;20079;-83
2024/04/08 05:31:34;;;;;;;2.03;0.60;;;14.20;99.90;;;;;;5048099;28;20399;-82
2024/04/08 05:34:00;;;;;;;2.03;0.57;;;14.20;99.90;;;;;;5038787;28;20045;-83
2024/04/08 05:36:26;;;;;;;1.20;0.47;;;14.20;99.90;;;;;;5055148;28;20526;-83
2024/04/08 05:38:52;;;;;;;2.22;0.60;;;14.20;99.90;;;;;;5038434;28;20152;-82
2024/04/08 05:41:18;;;;;;;1.23;0.50;;;14.20;99.90;;;;;;5035592;28;20044;-85
2024/04/08 05:43:44;;;;;;;3.20;1.05;;;14.20;99.90;;;;;;5034853;28;20076;-82
2024/04/08 05:46:10;;;;;;;2.08;0.90;;;14.20;99.90;;;;;;5052555;28;20094;-83
2024/04/08 05:48:37;;;;;;;3.55;1.00;;;14.20;99.90;;;;;;5040938;28;20045;-83
2024/04/08 05:51:03;;;;;;;2.25;0.90;;;14.20;99.90;;;;;;5044997;28;20036;-82
2024/04/08 05:53:30;;;;;;;2.40;0.90;;;14.10;99.90;;;;;;5074840;28;20048;-82
2024/04/08 05:55:56;;;;;;;1.35;0.57;;;14.20;99.90;;;;;;5023868;28;20075;-80
2024/04/08 05:58:21;;;;;;;2.28;0.80;;;14.20;99.90;;;;;;5038377;28;20070;-84
2024/04/08 06:00:48;;;;;;;2.28;1.23;;;14.20;99.90;;;;;;5038379;28;20213;-84
2024/04/08 06:03:14;;;;;;;2.92;0.80;;;14.20;99.90;;;;;;5047085;28;20139;-84
2024/04/08 06:05:41;;;;;;;2.35;0.77;;;14.30;99.90;;;;;;5024245;28;20037;-83
2024/04/08 06:08:07;;;;;;;2.80;1.00;;;14.30;99.90;;;;;;5061571;28;20055;-83
2024/04/08 06:10:36;;;;;;;3.72;1.10;;;14.30;99.90;;;;;;5043870;28;20041;-81
2024/04/08 06:13:04;;;;;;;3.40;1.33;;;14.30;99.90;;;;;;5046106;28;20044;-83
2024/04/08 06:15:31;;;;;;;2.42;0.70;;;14.30;99.90;;;;;;5055114;28;20412;-82
2024/04/08 06:17:58;;;;;;;1.73;0.70;;;14.30;99.90;;;;;;5040421;28;20106;-83
2024/04/08 06:20:24;;;;;;;2.65;0.80;;;14.30;99.90;;;;;;5062313;28;20036;-83
2024/04/08 06:22:50;;;;;;;1.55;0.60;;;14.30;99.90;;;;;;5054354;28;20040;-82
2024/04/08 06:25:16;;;;;;;2.83;1.05;;;14.40;99.90;;;;;;5049376;28;20052;-81
2024/04/08 06:27:42;;;;;;;2.38;0.73;;;14.40;99.90;;;;;;5042082;28;20136;-83
2024/04/08 06:30:09;;;;;;;2.03;0.60;;;14.40;99.90;;;;;;5059121;28;20066;-83
2024/04/08 06:32:35;;;;;;;2.50;0.80;;;14.40;99.90;;;;;;5066041;28;20040;-82
2024/04/08 06:35:01;;;;;;;2.08;0.70;;;14.40;99.90;;;;;;5038864;28;20063;-84
2024/04/08 06:37:27;;;;;;;1.95;0.70;;;14.50;99.90;;;;;;5042513;28;20032;-84
2024/04/08 06:39:53;;;;;;;2.45;0.70;;;14.50;99.90;;;;;;5042210;28;20055;-82
2024/04/08 06:42:19;;;;;;;2.15;0.80;;;14.60;99.90;;;;;;5041588;28;20098;-82
2024/04/08 06:44:50;;;;;;;1.70;0.70;;;14.70;99.90;;;;;;4999661;28;20397;-83
2024/04/08 06:47:16;;;;;;;2.75;1.02;;;14.80;99.90;;;;;;5057966;28;20136;-82
2024/04/08 06:49:44;;;;;;;2.63;0.95;;;14.90;99.90;;;;;;5047841;28;20052;-82
2024/04/08 06:52:10;;;;;;;2.50;0.90;;;15.00;99.90;;;;;;5058024;28;20048;-82
2024/04/08 06:54:36;;;;;;;1.98;0.75;;;15.00;99.90;;;;;;5038208;28;20056;-82
2024/04/08 06:57:03;;;;;;;1.40;0.95;;;15.10;99.90;;;;;;5034932;28;20519;-81
2024/04/08 06:59:29;;;;;;;2.50;0.98;;;15.10;99.90;;;;;;5038814;28;20056;-81
2024/04/08 07:01:55;;;;;;;2.58;1.00;;;15.10;99.90;;;;;;5058057;28;20041;-82
2024/04/08 07:04:22;;;;;;;2.42;0.82;;;15.10;99.90;;;;;;5045296;28;20036;-82
2024/04/08 07:06:48;;;;;;;3.65;0.80;;;15.10;99.90;;;;;;5051835;28;20037;-82
2024/04/08 07:09:14;;;;;;;3.50;0.95;;;15.10;99.90;;;;;;5043386;28;20051;-84
2024/04/08 07:11:40;;;;;;;1.52;0.85;;;15.10;99.90;;;;;;5041411;28;20044;-82
2024/04/08 07:14:06;;;;;;;2.30;0.60;;;15.20;99.90;;;;;;5041304;28;20503;-83
2024/04/08 07:16:33;;;;;;;2.92;0.82;;;15.20;99.90;;;;;;5041196;28;20048;-82
2024/04/08 07:18:59;;;;;;;1.77;0.70;;;15.30;99.90;;;;;;5041137;28;20428;-83
2024/04/08 07:21:25;;;;;;;3.60;0.88;;;15.30;99.90;;;;;;5040407;28;20047;-82
2024/04/08 07:23:54;;;;;;;1.52;0.60;;;15.40;99.90;;;;;;5042411;28;20523;-82
2024/04/08 07:26:20;;;;;;;2.55;0.85;;;15.40;99.90;;;;;;5053612;28;20048;-82
2024/04/08 07:28:46;;;;;;;2.42;0.63;;;15.40;99.90;;;;;;5040846;28;20052;-82
2024/04/08 07:31:12;;;;;;;1.98;0.50;;;15.40;99.90;;;;;;5054559;28;20051;-82
2024/04/08 07:33:38;;;;;;;1.33;0.60;;;15.50;99.90;;;;;;5024342;28;20032;-82
2024/04/08 07:36:04;;;;;;;2.00;0.80;;;15.50;99.90;;;;;;5040795;28;20447;-82
2024/04/08 07:38:30;;;;;;;2.97;0.70;;;15.60;99.90;;;;;;5038407;28;20041;-81
2024/04/08 07:40:56;;;;;;;2.05;0.80;;;15.70;99.90;;;;;;5041096;28;20171;-82
2024/04/08 07:43:22;;;;;;;2.28;0.70;;;15.70;99.90;;;;;;5044056;28;20037;-82
2024/04/08 07:45:48;;;;;;;1.90;0.60;;;15.70;99.90;;;;;;5045177;28;20516;-82
2024/04/08 07:48:14;;;;;;;2.15;0.50;;;15.80;99.90;;;;;;5036272;28;20044;-82
2024/04/08 07:50:40;;;;;;;1.52;0.60;;;15.80;99.90;;;;;;5045059;28;20128;-82
2024/04/08 07:53:06;;;;;;;2.72;0.93;;;15.90;99.90;;;;;;5045638;28;20032;-82
2024/04/08 07:55:32;;;;;;;2.05;1.00;;;15.90;99.70;;;;;;5052276;28;20048;-82
2024/04/08 07:57:58;;;;;;;2.97;1.00;;;16.00;99.60;;;;;;5056930;28;20037;-82
2024/04/08 08:00:24;;;;;;;1.73;0.70;;;16.00;99.60;;;;;;5040850;28;20581;-82
2024/04/08 08:02:50;;;;;;;2.67;0.90;;;16.00;99.50;;;;;;5073991;28;20036;-82
2024/04/08 08:05:16;;;;;;;1.55;0.60;;;16.20;99.40;;;;;;5051736;28;20142;-82
2024/04/08 08:07:43;;;;;;;2.33;0.65;;;16.30;99.20;;;;;;5075520;28;20115;-82
2024/04/08 08:10:09;;;;;;;1.90;0.77;;;16.50;99.10;;;;;;5075871;28;20040;-82
2024/04/08 08:12:35;;;;;;;3.92;0.77;;;16.60;99.00;;;;;;5067858;28;20051;-82
2024/04/08 08:15:01;;;;;;;2.10;0.60;;;16.70;98.90;;;;;;5040535;28;20485;-82
2024/04/08 08:17:28;;;;;;;4.22;0.85;;;16.70;98.80;;;;;;5046812;28;20047;-82
2024/04/08 08:19:58;;;;;;;2.25;1.00;;;16.70;98.70;;;;;;5024066;28;20492;-82
2024/04/08 08:22:24;;;;;;;1.77;0.60;;;16.70;98.60;;;;;;5053635;28;20115;-86
2024/04/08 08:24:50;;;;;;;1.98;0.65;;;16.70;98.70;;;;;;5035557;28;20087;-87
2024/04/08 08:27:16;;;;;;;3.28;0.88;;;16.70;98.70;;;;;;5008215;28;20049;-84
2024/04/08 08:29:46;;;;;;;2.10;0.70;;;16.80;98.60;;;;;;5063900;28;20044;-84
2024/04/08 08:32:12;;;;;;;1.17;0.50;;;16.80;98.50;;;;;;5056491;28;20499;-83
2024/04/08 08:34:38;;;;;;;1.77;0.55;;;16.80;98.40;;;;;;5045745;28;20119;-83
2024/04/08 08:37:04;;;;;;;1.80;0.47;;;16.80;98.40;;;;;;5057041;28;20065;-84
2024/04/08 08:43:00;;;;;;;3.40;1.30;;;16.80;98.50;;;;;;5435591;26;20797;-83
2024/04/08 08:45:27;;;;;;;2.17;0.95;;;17.30;97.70;;;;;;5379502;26;20012;-87
2024/04/08 08:47:55;;;;;;;1.40;0.60;;;17.30;97.80;;;;;;5369334;26;20012;-84
2024/04/08 08:50:25;;;;;;;1.75;0.50;;;17.30;97.80;;;;;;5394276;26;20027;-82
2024/04/08 08:52:52;;;;;;;1.75;0.70;;;17.30;97.70;;;;;;5381772;26;20006;-83
2024/04/08 08:55:21;;;;;;;1.20;0.40;;;17.30;97.70;;;;;;5357873;26;20000;-83
2024/04/08 08:57:48;;;;;;;0.82;0.40;;;17.30;97.60;;;;;;5387620;26;20043;-82
2024/04/08 09:00:15;;;;;;;2.65;0.57;;;17.50;97.60;;;;;;5405534;26;20080;-83
2024/04/08 09:02:45;;;;;;;1.40;0.45;;;17.50;97.30;;;;;;5372477;26;20441;-86
2024/04/08 09:05:12;;;;;;;1.13;0.40;;;17.60;97.10;;;;;;5388794;26;20044;-84
2024/04/08 09:07:39;;;;;;;1.05;0.60;;;17.70;96.90;;;;;;5397764;26;20411;-84
2024/04/08 09:10:06;;;;;;;1.70;0.50;;;17.70;96.80;;;;;;5338716;26;20449;-82
2024/04/08 09:12:33;;;;;;;1.58;0.68;;;17.60;96.80;;;;;;5363584;26;20333;-83
2024/04/08 09:15:01;;;;;;;0.93;0.40;;;17.50;96.90;;;;;;5341045;26;20449;-82
2024/04/08 09:17:28;;;;;;;1.48;0.40;;;17.50;97.00;;;;;;5334013;26;20005;-83
2024/04/08 09:19:58;;;;;;;1.27;0.65;;;17.60;97.00;;;;;;5348062;26;19996;-83
2024/04/08 09:22:25;;;;;;;3.45;0.77;;;17.70;96.80;;;;;;5350296;26;20352;-83
2024/04/08 09:24:55;;;;;;;2.67;0.70;;;17.80;96.60;;;;;;5343726;26;20011;-87
2024/04/08 09:27:23;;;;;;;1.83;0.65;;;17.90;96.50;;;;;;5328413;26;20070;-87
2024/04/08 09:29:50;;;;;;;4.07;0.80;;;17.90;96.30;;;;;;5363095;26;20324;-83
2024/04/08 09:32:18;;;;;;;2.33;0.90;;;17.90;96.30;;;;;;5355999;26;20428;-82
2024/04/08 09:34:45;;;;;;;3.42;0.93;;;17.90;96.60;;;;;;5354746;26;20410;-83
2024/04/08 09:37:14;;;;;;;2.88;1.08;;;18.00;96.10;;;;;;5308837;26;19997;-83
2024/04/08 09:39:41;;;;;;;2.28;0.93;;;18.10;96.00;;;;;;5346038;26;20001;-83
2024/04/08 09:42:10;;;;;;;2.85;0.90;;;18.10;96.00;;;;;;5392147;26;20069;-87
2024/04/08 09:44:40;;;;;;;2.42;0.98;;;18.20;95.80;;;;;;5392010;26;20001;-82
2024/04/08 09:47:09;;;;;;;2.55;1.02;;;18.40;95.90;;;;;;5387311;26;20000;-87
2024/04/08 09:49:38;;;;;;;4.20;1.25;;;18.50;95.30;;;;;;5350612;26;20005;-82
2024/04/08 09:52:18;;;;;;;3.72;1.50;;;18.50;95.00;;;;;;5361055;26;19997;-82
2024/04/08 09:55:27;;;;;;;4.30;1.65;;;18.50;95.00;;;;;;5382273;26;20004;-93
2024/04/08 09:58:08;;;;;;;3.80;1.40;;;18.60;94.60;;;;;;5384997;26;20011;-90
2024/04/08 10:00:36;;;;;;;4.15;1.20;;;18.60;94.60;;;;;;5351554;26;20022;-96
2024/04/08 10:03:11;;;;;;;2.63;0.75;;;18.60;94.60;;;;;;5321665;26;20004;-96
2024/04/08 10:05:46;;;;;;;3.17;1.13;;;18.70;94.50;;;;;;5333220;26;20018;-90
2024/04/08 10:08:19;;;;;;;2.17;1.00;;;18.90;94.40;;;;;;5361764;26;20140;-90
2024/04/08 10:10:47;;;;;;;2.80;1.02;;;19.10;94.20;;;;;;5349219;26;19997;-92
2024/04/08 10:13:17;;;;;;;3.72;1.35;;;19.30;93.80;;;;;;5364760;26;20016;-93
2024/04/08 10:15:45;;;;;;;3.45;1.13;;;19.50;93.00;;;;;;5359670;26;20071;-89
2024/04/08 10:18:15;;;;;;;2.40;1.15;;;19.70;92.90;;;;;;5378576;26;20042;-89
2024/04/08 10:20:43;;;;;;;3.13;1.38;;;19.80;92.70;;;;;;5339625;26;20011;-91
2024/04/08 10:23:11;;;;;;;2.58;1.00;;;19.80;92.50;;;;;;5377540;26;20368;-90
2024/04/08 10:25:47;;;;;;;2.67;1.10;;;19.90;92.40;;;;;;5340559;26;20040;-90
2024/04/08 10:28:31;;;;;;;2.78;1.20;;;20.00;92.30;;;;;;5344176;26;20022;-92
2024/04/08 10:31:12;;;;;;;3.33;1.52;;;20.20;92.00;;;;;;5354715;26;20012;-84
2024/04/08 10:33:45;;;;;;;4.32;1.23;;;20.40;91.90;;;;;;5353254;26;20402;-86
2024/04/08 10:36:13;;;;;;;3.40;1.40;;;20.20;91.80;;;;;;5352303;26;20012;-86
2024/04/08 10:38:40;;;;;;;1.90;1.00;;;20.30;91.90;;;;;;5341905;26;20009;-85
2024/04/08 10:41:17;;;;;;;4.13;1.10;;;20.40;91.70;;;;;;5409309;26;20014;-94
2024/04/08 10:43:45;;;;;;;2.70;1.25;;;20.40;91.60;;;;;;5331314;26;20073;-84
2024/04/08 10:46:17;;;;;;;2.95;1.10;;;20.40;91.50;;;;;;5347978;26;20013;-86
2024/04/08 10:48:48;;;;;;;3.42;1.83;;;20.40;91.50;;;;;;5375242;26;20036;-86
2024/04/08 10:51:18;;;;;;;2.25;1.23;;;20.60;91.30;;;;;;5331210;26;19997;-85
2024/04/08 10:53:46;;;;;;;3.63;2.05;;;20.80;91.10;;;;;;5372785;26;20001;-85
2024/04/08 10:56:13;;;;;;;5.53;3.90;;;20.80;90.90;;;;;;5406963;26;20048;-89
2024/04/08 10:58:40;;;;;;;4.07;2.78;;;20.60;90.60;;;;;;5369620;26;20031;-84
2024/04/08 11:01:08;;;;;;;3.75;2.58;;;20.40;90.90;;;;;;5362205;26;20010;-84
2024/04/08 11:03:36;;;;;;;4.85;3.00;;;20.40;90.90;;;;;;5344430;26;20016;-87
2024/04/08 11:06:22;;;;;;;3.95;3.33;;;20.40;91.00;;;;;;5354756;26;20008;-93
2024/04/08 11:08:52;;;;;;;5.25;4.38;;;20.50;90.90;;;;;;5381488;26;20012;-85
2024/04/08 11:11:24;;;;;;;4.55;3.53;;;20.30;90.30;;;;;;5333312;26;20011;-84
2024/04/08 11:13:53;;;;;;;4.07;2.53;;;20.30;90.50;;;;;;5372731;26;20000;-84
2024/04/08 11:16:20;;;;;;;3.55;2.88;;;20.40;90.60;;;;;;5362273;26;20001;-86
2024/04/08 11:18:49;;;;;;;3.22;2.33;;;20.40;90.60;;;;;;5324685;26;20008;-87
2024/04/08 11:21:16;;;;;;;3.85;2.70;;;20.50;90.60;;;;;;5324604;26;19997;-85
2024/04/08 11:23:44;;;;;;;2.53;2.10;;;20.60;90.50;;;;;;5348756;26;20011;-82
2024/04/08 11:26:11;;;;;;;3.42;2.42;;;20.80;90.40;;;;;;5351957;26;20001;-82
2024/04/08 11:28:38;;;;;;;2.70;1.85;;;21.10;89.90;;;;;;5338441;26;20082;-83
2024/04/08 11:31:06;;;;;;;3.10;2.17;;;21.40;88.90;;;;;;5330175;26;19996;-87
2024/04/08 11:33:33;;;;;;;3.63;2.67;;;21.50;88.50;;;;;;5323019;26;20005;-89
2024/04/08 11:36:01;;;;;;;2.45;1.80;;;21.30;88.40;;;;;;5327575;26;20015;-84
2024/04/08 11:39:00;;;;;;;;;;;;;;;;;;;;;
2024/04/08 11:41:27;;;;;;;4.35;1.83;;;21.00;89.30;;;;;;5384739;26;20016;-86
2024/04/08 11:43:55;;;;;;;4.30;2.50;;;20.80;89.90;;;;;;5329818;26;20021;-83
2024/04/08 11:46:25;;;;;;;2.90;2.00;;;20.80;90.00;;;;;;5335876;26;20028;-79
2024/04/08 11:48:52;;;;;;;4.32;2.50;;;20.70;90.10;;;;;;5378882;26;20043;-78
2024/04/08 11:51:20;;;;;;;3.28;2.38;;;20.60;90.10;;;;;;5346016;26;20016;-79
2024/04/08 11:53:47;;;;;;;3.58;2.97;;;20.40;90.30;;;;;;5341570;26;20369;-78
2024/04/08 11:56:14;;;;;;;3.55;2.45;;;20.20;90.30;;;;;;5345705;26;20001;-78
2024/04/08 11:58:41;;;;;;;3.55;2.97;;;20.10;90.80;;;;;;5332749;26;20005;-78
2024/04/08 12:01:08;;;;;;;3.78;2.40;;;20.00;90.60;;;;;;5366243;26;20004;-79
2024/04/08 12:03:50;;;;;;;5.28;3.10;;;19.80;90.70;;;;;;5372909;26;20001;-82
2024/04/08 12:06:20;;;;;;;4.35;3.40;;;19.80;90.70;;;;;;5323709;26;20004;-81
2024/04/08 12:08:48;;;;;;;3.35;2.90;;;19.80;90.70;;;;;;5390657;26;20007;-80
2024/04/08 12:11:15;;;;;;;5.60;3.80;;;19.80;90.60;;;;;;5346182;26;20081;-82
2024/04/08 12:13:42;;;;;;;4.20;3.17;;;20.00;90.40;;;;;;5335592;26;20010;-82
2024/04/08 12:16:10;;;;;;;4.45;3.17;;;20.10;90.20;;;;;;5339599;26;20025;-83
2024/04/08 12:18:37;;;;;;;5.25;3.25;;;20.30;90.00;;;;;;5326873;26;20461;-81
2024/04/08 12:21:04;;;;;;;5.00;3.97;;;20.40;90.00;;;;;;5312403;26;20451;-80
2024/04/08 12:23:31;;;;;;;6.93;4.35;;;20.30;89.90;;;;;;5335223;26;20074;-81
2024/04/08 12:25:59;;;;;;;5.90;4.70;;;20.30;89.70;;;;;;5318216;26;20450;-82
2024/04/08 12:28:26;;;;;;;6.07;4.72;;;20.20;89.80;;;;;;5367481;26;19997;-84
2024/04/08 12:30:53;;;;;;;5.00;3.55;;;20.10;90.00;;;;;;5302759;26;20000;-78
2024/04/08 12:33:24;;;;;;;5.38;4.20;;;20.00;90.10;;;;;;5360991;26;19997;-78
2024/04/08 12:35:51;;;;;;;5.70;3.88;;;19.90;90.20;;;;;;5334773;26;20005;-78
2024/04/08 12:38:19;;;;;;;4.85;3.53;;;19.80;90.30;;;;;;5343660;26;20371;-80
2024/04/08 12:40:47;;;;;;;5.50;3.85;;;19.70;90.50;;;;;;5369472;26;20017;-81
2024/04/08 12:43:14;;;;;;;4.47;3.22;;;19.70;90.60;;;;;;5365554;26;20061;-81
2024/04/08 12:45:41;;;;;;;4.95;2.92;;;19.60;90.60;;;;;;5373065;26;20070;-83
2024/04/08 12:48:08;;;;;;;3.92;2.97;;;19.60;90.70;;;;;;5342945;26;20012;-83
2024/04/08 12:50:37;;;;;;;3.85;2.88;;;19.50;90.70;;;;;;5375728;26;20007;-81
2024/04/08 12:53:04;;;;;;;5.72;3.50;;;19.50;90.80;;;;;;5344608;26;20013;-81